Time;durP1;ratioP1;P1;durP2;ratioP2;P2;SDS_P1;SDS_P2;PMS_P1;PMS_P2;Temp;Humidity;BMP_temperature;BMP_pressure;BME280_temperature;BME280_humidity;BME280_pressure;Samples;Min_cycle;Max_cycle;Signal;HPM_P1;HPM_P2
2022/04/29 00:01:58;;;;;;;;;;;;;;;21.20;31.06;98342.22;5032639;28;836;-77
2022/04/29 00:04:24;;;;;;;;;;;;;;;21.65;30.14;98336.03;5072277;28;1330;-76
2022/04/29 00:06:49;;;;;;;;;;;;;;;22.03;29.26;98329.97;5072815;28;928;-76
2022/04/29 00:09:15;;;;;;;;;;;;;;;21.50;30.07;98329.09;5072616;28;1015;-77
2022/04/29 00:11:40;;;;;;;;;;;;;;;21.21;30.48;98332.47;5072007;28;1835;-76
2022/04/29 00:14:06;;;;;;;;;;;;;;;21.23;30.18;98324.34;5072840;28;914;-77
2022/04/29 00:16:31;;;;;;;;;;;;;;;21.06;30.75;98326.31;5072749;28;1984;-77
2022/04/29 00:18:57;;;;;;;;;;;;;;;21.16;31.14;98327.31;5072754;28;927;-77
2022/04/29 00:21:23;;;;;;;;;;;;;;;21.74;29.80;98336.25;5072218;28;1039;-76
2022/04/29 00:23:48;;;;;;;;;;;;;;;22.12;29.20;98337.88;5071870;28;1638;-75
2022/04/29 00:26:14;;;;;;;;;;;;;;;21.44;29.89;98339.34;5052630;28;1059;-77
2022/04/29 00:28:39;;;;;;;;;;;;;;;21.25;30.47;98336.06;5064487;28;912;-77
2022/04/29 00:31:05;;;;;;;;;;;;;;;21.03;30.60;98343.34;5113085;28;1116;-77
2022/04/29 00:33:30;;;;;;;;;;;;;;;21.08;30.43;98335.13;5115907;28;1952;-77
2022/04/29 00:35:56;;;;;;;;;;;;;;;21.30;31.02;98329.13;5070051;28;1986;-77
2022/04/29 00:38:21;;;;;;;;;;;;;;;21.75;29.86;98320.84;5092681;28;1264;-77
2022/04/29 00:40:48;;;;;;;;;;;;;;;21.90;29.41;98327.00;5072432;28;1022;-77
2022/04/29 00:43:13;;;;;;;;;;;;;;;21.35;30.03;98324.94;5052409;28;1191;-76
2022/04/29 00:45:39;;;;;;;;;;;;;;;21.26;30.05;98326.31;5052102;28;948;-77
2022/04/29 00:48:04;;;;;;;;;;;;;;;21.10;30.11;98320.59;5068016;28;1972;-76
2022/04/29 00:50:30;;;;;;;;;;;;;;;21.13;30.44;98325.34;5052138;28;1146;-77
2022/04/29 00:52:56;;;;;;;;;;;;;;;21.39;30.41;98325.69;5052099;28;1000;-76
2022/04/29 00:55:22;;;;;;;;;;;;;;;21.68;29.95;98326.69;5031730;28;1291;-77
2022/04/29 00:58:08;;;;;;;;;;;;;;;21.89;29.13;98313.28;5032045;28;1967;-77
2022/04/29 01:00:34;;;;;;;;;;;;;;;21.41;30.10;98328.91;5031767;28;1350;-77
2022/04/29 01:03:00;;;;;;;;;;;;;;;21.27;29.99;98324.28;5032090;28;969;-77
2022/04/29 01:05:25;;;;;;;;;;;;;;;21.01;30.64;98317.53;5012265;28;1031;-77
2022/04/29 01:07:51;;;;;;;;;;;;;;;21.20;30.84;98319.56;5016080;28;1009;-77
2022/04/29 01:10:20;;;;;;;;;;;;;;;21.74;29.84;98319.25;4998972;28;857;-77
2022/04/29 01:12:47;;;;;;;;;;;;;;;22.03;29.36;98318.63;4995953;28;1946;-77
2022/04/29 01:15:14;;;;;;;;;;;;;;;21.51;29.76;98310.88;4995906;28;1386;-77
2022/04/29 01:17:40;;;;;;;;;;;;;;;21.28;29.94;98308.91;5001530;28;1906;-77
2022/04/29 01:20:06;;;;;;;;;;;;;;;21.22;29.69;98314.25;4976601;28;1011;-76
2022/04/29 01:22:32;;;;;;;;;;;;;;;20.95;30.33;98307.94;4976709;28;1214;-75
2022/04/29 01:24:58;;;;;;;;;;;;;;;21.13;30.20;98311.22;4995872;28;1202;-77
2022/04/29 01:27:24;;;;;;;;;;;;;;;21.21;30.22;98304.19;4993350;28;1884;-76
2022/04/29 01:29:51;;;;;;;;;;;;;;;21.61;30.13;98309.88;4976500;28;1598;-76
2022/04/29 01:32:16;;;;;;;;;;;;;;;21.96;29.69;98310.28;4940828;28;1008;-76
2022/04/29 01:34:45;;;;;;;;;;;;;;;21.65;29.71;98315.44;4918678;29;1523;-77
2022/04/29 01:37:10;;;;;;;;;;;;;;;21.28;30.49;98321.00;4933310;29;1980;-77
2022/04/29 01:39:36;;;;;;;;;;;;;;;21.12;30.75;98309.63;4937855;29;1096;-76
2022/04/29 01:42:02;;;;;;;;;;;;;;;21.16;30.75;98313.19;4936139;29;1526;-76
2022/04/29 01:44:28;;;;;;;;;;;;;;;21.52;30.29;98312.47;4937934;29;962;-76
2022/04/29 01:46:53;;;;;;;;;;;;;;;21.97;29.58;98303.41;4880175;29;1057;-77
2022/04/29 01:49:37;;;;;;;;;;;;;;;21.80;29.42;98303.34;4862358;29;1045;-77
2022/04/29 01:52:04;;;;;;;;;;;;;;;21.24;30.40;98300.50;4916189;29;954;-77
2022/04/29 01:54:29;;;;;;;;;;;;;;;21.08;30.48;98295.53;4937451;29;1085;-77
2022/04/29 01:56:55;;;;;;;;;;;;;;;21.10;30.26;98294.31;4954377;28;1915;-76
2022/04/29 01:59:20;;;;;;;;;;;;;;;21.23;30.01;98283.94;4923820;29;1122;-77
2022/04/29 02:02:09;;;;;;;;;;;;;;;21.62;30.23;98276.69;4996209;28;933;-76
2022/04/29 02:04:35;;;;;;;;;;;;;;;21.91;29.75;98279.63;5034839;28;1063;-77
2022/04/29 02:07:04;;;;;;;;;;;;;;;21.56;30.00;98279.22;5018324;28;988;-76
2022/04/29 02:09:31;;;;;;;;;;;;;;;21.24;30.62;98280.69;5041283;28;1933;-77
2022/04/29 02:12:05;;;;;;;;;;;;;;;21.11;30.54;98276.09;5054423;28;1074;-77
2022/04/29 02:14:49;;;;;;;;;;;;;;;20.97;31.08;98271.53;5054418;28;814;-76
2022/04/29 02:17:18;;;;;;;;;;;;;;;21.04;30.91;98277.06;5027862;28;1906;-77
2022/04/29 02:19:45;;;;;;;;;;;;;;;21.62;30.34;98277.47;5014448;28;1043;-77
2022/04/29 02:22:10;;;;;;;;;;;;;;;21.92;29.67;98278.41;5009457;28;1058;-76
2022/04/29 02:24:36;;;;;;;;;;;;;;;22.17;29.32;98289.97;4974287;28;1943;-77
2022/04/29 02:27:03;;;;;;;;;;;;;;;22.10;29.20;98278.78;4973165;28;929;-76
2022/04/29 02:29:29;;;;;;;;;;;;;;;21.39;30.52;98286.06;4970725;28;1792;-76
2022/04/29 02:31:55;;;;;;;;;;;;;;;21.29;30.43;98294.28;4983691;28;1875;-77
2022/04/29 02:34:20;;;;;;;;;;;;;;;21.11;30.75;98293.88;4994897;28;1107;-77
2022/04/29 02:36:47;;;;;;;;;;;;;;;21.11;30.77;98295.91;4994649;28;1906;-77
2022/04/29 02:39:12;;;;;;;;;;;;;;;20.90;31.17;98302.78;4952397;28;1035;-77
2022/04/29 02:41:38;;;;;;;;;;;;;;;20.94;30.92;98301.50;4975349;28;1077;-76
2022/04/29 02:44:04;;;;;;;;;;;;;;;21.13;30.44;98302.72;5010382;28;1347;-76
2022/04/29 02:46:30;;;;;;;;;;;;;;;21.62;30.33;98300.13;5005007;28;1770;-77
2022/04/29 02:48:55;;;;;;;;;;;;;;;21.94;29.53;98293.72;5014488;28;1068;-77
2022/04/29 02:51:20;;;;;;;;;;;;;;;21.84;29.56;98295.56;5029275;28;991;-77
2022/04/29 02:53:46;;;;;;;;;;;;;;;21.40;30.24;98304.63;5034426;28;1260;-76
2022/04/29 02:56:11;;;;;;;;;;;;;;;21.26;30.32;98306.50;4994458;28;1910;-77
2022/04/29 02:58:52;;;;;;;;;;;;;;;21.14;30.68;98297.84;4994406;28;1163;-77
2022/04/29 03:01:17;;;;;;;;;;;;;;;21.03;30.69;98303.72;4977496;28;1860;-77
2022/04/29 03:03:43;;;;;;;;;;;;;;;21.41;30.57;98300.59;5010546;28;1305;-77
2022/04/29 03:06:08;;;;;;;;;;;;;;;21.83;29.81;98308.13;4994161;28;1548;-76
2022/04/29 03:08:34;;;;;;;;;;;;;;;22.08;29.13;98303.94;5036898;28;1890;-77
2022/04/29 03:11:00;;;;;;;;;;;;;;;21.42;30.22;98313.50;5052624;28;1521;-76
2022/04/29 03:13:27;;;;;;;;;;;;;;;21.21;30.57;98315.50;5053392;28;1214;-77
2022/04/29 03:16:05;;;;;;;;;;;;;;;21.17;30.26;98311.94;5053375;28;1898;-76
2022/04/29 03:18:30;;;;;;;;;;;;;;;21.15;30.51;98322.13;5053899;28;995;-76
2022/04/29 03:20:57;;;;;;;;;;;;;;;21.51;30.40;98310.88;5053202;28;1074;-76
2022/04/29 03:23:23;;;;;;;;;;;;;;;21.88;29.64;98312.50;5073027;28;1110;-77
2022/04/29 03:25:52;;;;;;;;;;;;;;;22.05;29.42;98321.81;4990470;28;1920;-76
2022/04/29 03:28:18;;;;;;;;;;;;;;;21.42;30.24;98324.81;4901587;29;1397;-76
2022/04/29 03:30:45;;;;;;;;;;;;;;;21.30;30.18;98329.13;4916589;29;1236;-76
2022/04/29 03:33:11;;;;;;;;;;;;;;;21.07;30.85;98329.94;4916865;29;1118;-77
2022/04/29 03:35:43;;;;;;;;;;;;;;;20.98;30.99;98321.19;4935918;29;1748;-77
2022/04/29 03:38:17;;;;;;;;;;;;;;;20.88;30.92;98325.03;4935636;29;1337;-77
2022/04/29 03:40:43;;;;;;;;;;;;;;;21.40;30.85;98321.63;4902192;29;1866;-77
2022/04/29 03:43:08;;;;;;;;;;;;;;;21.81;30.06;98319.13;4954769;28;1135;-77
2022/04/29 03:45:34;;;;;;;;;;;;;;;22.07;29.35;98325.81;4936508;29;999;-76
2022/04/29 03:48:01;;;;;;;;;;;;;;;21.72;29.54;98333.06;4919508;29;1248;-76
2022/04/29 03:50:51;;;;;;;;;;;;;;;21.27;30.62;98325.06;4916139;29;1897;-77
2022/04/29 03:53:16;;;;;;;;;;;;;;;21.07;30.84;98315.78;4916685;29;993;-77
2022/04/29 03:55:52;;;;;;;;;;;;;;;21.13;30.66;98322.53;4905172;28;1985;-76
2022/04/29 03:58:17;;;;;;;;;;;;;;;21.25;30.64;98330.38;4976869;28;1309;-76
2022/04/29 04:00:49;;;;;;;;;;;;;;;21.64;30.02;98331.63;5018498;28;2008;-77
2022/04/29 04:03:27;;;;;;;;;;;;;;;21.93;29.34;98328.19;5016489;28;1420;-77
2022/04/29 04:08:42;;;;;;;;;;;;;;;21.13;30.48;98341.53;5012716;28;1227;-76
2022/04/29 04:11:07;;;;;;;;;;;;;;;21.16;30.53;98340.69;4996634;28;1131;-76
2022/04/29 04:13:33;;;;;;;;;;;;;;;21.05;30.50;98340.88;4996639;28;1164;-77
2022/04/29 04:16:23;;;;;;;;;;;;;;;20.92;31.03;98343.53;5013017;28;1910;-76
2022/04/29 04:18:50;;;;;;;;;;;;;;;21.05;31.11;98347.34;5012794;28;1239;-77
2022/04/29 04:21:16;;;;;;;;;;;;;;;21.64;30.02;98342.94;5002871;28;1276;-77
2022/04/29 04:23:42;;;;;;;;;;;;;;;21.98;29.58;98341.81;5092561;28;1289;-77
2022/04/29 04:26:07;;;;;;;;;;;;;;;21.74;29.63;98347.59;5035559;28;1379;-77
2022/04/29 04:28:33;;;;;;;;;;;;;;;21.42;29.97;98344.63;5032218;28;1122;-76
2022/04/29 04:31:00;;;;;;;;;;;;;;;21.21;30.45;98346.63;5032163;28;1089;-77
2022/04/29 04:33:49;;;;;;;;;;;;;;;21.03;30.65;98357.47;4973635;28;1069;-77
2022/04/29 04:36:15;;;;;;;;;;;;;;;20.92;31.10;98366.16;4957310;28;1977;-77
2022/04/29 04:38:42;;;;;;;;;;;;;;;21.30;30.90;98355.38;4952620;29;1421;-77
2022/04/29 04:41:09;;;;;;;;;;;;;;;21.87;29.99;98355.44;4936024;29;1371;-77
2022/04/29 04:43:37;;;;;;;;;;;;;;;22.04;29.59;98354.22;4939016;29;942;-77
2022/04/29 04:46:06;;;;;;;;;;;;;;;21.65;29.86;98360.75;4938742;29;1240;-77
2022/04/29 04:48:40;;;;;;;;;;;;;;;21.20;30.60;98353.53;4939174;29;1024;-76
2022/04/29 04:51:35;;;;;;;;;;;;;;;21.05;30.86;98363.53;4919968;29;1010;-76
2022/04/29 04:54:04;;;;;;;;;;;;;;;20.96;31.21;98360.44;4906688;29;1208;-76
2022/04/29 04:56:30;;;;;;;;;;;;;;;21.34;31.05;98360.97;4887878;29;1907;-77
2022/04/29 04:58:57;;;;;;;;;;;;;;;21.93;29.81;98356.50;4919431;29;1141;-76
2022/04/29 05:01:22;;;;;;;;;;;;;;;22.09;29.28;98362.22;4924000;29;1098;-77
2022/04/29 05:04:05;;;;;;;;;;;;;;;21.33;30.58;98365.81;4938904;29;966;-77
2022/04/29 05:06:50;;;;;;;;;;;;;;;21.22;30.38;98365.22;4938515;29;1026;-76
2022/04/29 05:09:15;;;;;;;;;;;;;;;21.11;30.87;98373.09;4941516;29;1263;-76
2022/04/29 05:11:41;;;;;;;;;;;;;;;21.08;30.71;98376.78;5004363;28;1233;-77
2022/04/29 05:14:13;;;;;;;;;;;;;;;21.29;31.07;98373.53;4980406;28;1296;-76
2022/04/29 05:16:39;;;;;;;;;;;;;;;21.84;29.86;98374.88;4980184;28;1993;-77
2022/04/29 05:19:23;;;;;;;;;;;;;;;22.08;29.38;98380.44;4957315;29;953;-76
2022/04/29 05:21:48;;;;;;;;;;;;;;;21.54;30.31;98394.94;4957433;28;1317;-77
2022/04/29 05:24:14;;;;;;;;;;;;;;;21.29;30.26;98399.03;4960403;28;1217;-76
2022/04/29 05:27:15;;;;;;;;;;;;;;;21.00;30.87;98401.59;4996187;28;1052;-77
2022/04/29 05:30:04;;;;;;;;;;;;;;;21.05;31.39;98397.47;4957546;28;1039;-77
2022/04/29 05:32:48;;;;;;;;;;;;;;;21.85;29.83;98392.69;4957040;28;1126;-76
2022/04/29 05:35:31;;;;;;;;;;;;;;;22.17;29.08;98392.00;4952165;28;1041;-76
2022/04/29 05:44:05;;;;;;;;;;;;;;;21.16;30.21;98403.72;4868231;29;1221;-76
2022/04/29 05:46:31;;;;;;;;;;;;;;;21.02;30.65;98403.97;4865976;29;1417;-77
2022/04/29 05:48:56;;;;;;;;;;;;;;;21.61;30.26;98394.03;4866439;29;1620;-77
2022/04/29 05:51:23;;;;;;;;;;;;;;;21.89;29.48;98399.06;4918806;29;1184;-77
2022/04/29 05:53:48;;;;;;;;;;;;;;;21.59;29.53;98402.94;4918666;29;1380;-77
2022/04/29 05:56:14;;;;;;;;;;;;;;;21.31;30.23;98407.94;4901567;29;1903;-77
2022/04/29 05:58:39;;;;;;;;;;;;;;;21.09;30.54;98403.88;4899798;29;1207;-77
2022/04/29 06:01:23;;;;;;;;;;;;;;;21.01;30.72;98410.88;4901308;29;1053;-76
2022/04/29 06:03:48;;;;;;;;;;;;;;;21.10;30.80;98405.47;4918728;29;1049;-76
2022/04/29 06:06:14;;;;;;;;;;;;;;;21.41;30.74;98422.31;4915517;29;1223;-77
2022/04/29 06:08:42;;;;;;;;;;;;;;;21.93;29.74;98411.13;4912400;29;1469;-77
2022/04/29 06:11:08;;;;;;;;;;;;;;;22.10;29.37;98409.13;4956722;29;1374;-77
2022/04/29 06:13:33;;;;;;;;;;;;;;;21.57;29.98;98408.25;4956589;28;1210;-77
2022/04/29 06:16:17;;;;;;;;;;;;;;;21.35;30.15;98413.53;4956311;29;1977;-77
2022/04/29 06:19:09;;;;;;;;;;;;;;;21.16;30.81;98420.72;4956685;29;985;-77
2022/04/29 06:22:04;;;;;;;;;;;;;;;21.06;30.95;98416.03;4917607;29;1188;-77
2022/04/29 06:24:31;;;;;;;;;;;;;;;21.11;30.80;98415.53;4918185;29;1451;-77
2022/04/29 06:26:57;;;;;;;;;;;;;;;21.02;30.97;98423.78;4918298;29;992;-76
2022/04/29 06:29:23;;;;;;;;;;;;;;;21.46;30.67;98414.13;4918257;29;1227;-76
2022/04/29 06:31:48;;;;;;;;;;;;;;;21.85;29.84;98416.13;4937134;29;1153;-77
2022/04/29 06:34:34;;;;;;;;;;;;;;;21.54;30.23;98426.88;4936797;29;1034;-77
2022/04/29 06:37:00;;;;;;;;;;;;;;;21.32;30.44;98431.38;4937533;29;1914;-76
2022/04/29 06:39:25;;;;;;;;;;;;;;;21.22;30.62;98438.78;4936948;29;1538;-77
2022/04/29 06:42:14;;;;;;;;;;;;;;;21.11;30.81;98435.34;4934723;29;1003;-76
2022/04/29 06:45:18;;;;;;;;;;;;;;;21.19;30.50;98431.19;4906614;29;1038;-77
2022/04/29 06:48:22;;;;;;;;;;;;;;;20.92;31.03;98433.25;4891629;29;976;-77
2022/04/29 06:51:23;;;;;;;;;;;;;;;20.93;31.02;98435.66;4909851;29;944;-77
2022/04/29 06:53:57;;;;;;;;;;;;;;;21.48;30.58;98431.44;4914658;29;1106;-76
2022/04/29 06:56:27;;;;;;;;;;;;;;;21.85;29.78;98433.13;4898730;29;1906;-77
2022/04/29 06:58:53;;;;;;;;;;;;;;;21.68;29.82;98422.97;4889400;29;1118;-77
2022/04/29 07:01:22;;;;;;;;;;;;;;;21.48;30.45;98430.66;4936317;29;1369;-77
2022/04/29 07:03:47;;;;;;;;;;;;;;;21.26;30.61;98431.03;4883209;29;1118;-77
2022/04/29 07:06:13;;;;;;;;;;;;;;;21.19;30.54;98436.84;4917001;29;1320;-76
2022/04/29 07:08:39;;;;;;;;;;;;;;;21.04;30.84;98433.47;4936021;29;1017;-77
2022/04/29 07:11:29;;;;;;;;;;;;;;;21.50;30.45;98434.66;4951339;28;902;-76
2022/04/29 07:14:06;;;;;;;;;;;;;;;21.99;29.78;98431.25;4974868;28;1085;-77
2022/04/29 07:16:48;;;;;;;;;;;;;;;21.43;30.29;98434.00;4974459;28;1910;-77
2022/04/29 07:19:23;;;;;;;;;;;;;;;21.25;30.47;98440.75;4922958;29;1592;-76
2022/04/29 07:21:48;;;;;;;;;;;;;;;21.01;31.07;98437.13;4901106;29;1267;-77
2022/04/29 07:24:14;;;;;;;;;;;;;;;21.05;30.99;98437.88;4933040;29;1485;-77
2022/04/29 07:26:41;;;;;;;;;;;;;;;21.26;31.28;98442.34;4901210;29;1231;-77
2022/04/29 07:29:10;;;;;;;;;;;;;;;21.94;29.60;98434.59;4935418;29;1208;-77
2022/04/29 07:31:40;;;;;;;;;;;;;;;22.17;29.30;98436.53;4942137;29;1357;-77
2022/04/29 07:41:44;;;;;;;;;;;;;;;21.27;30.71;98434.66;4941232;29;1160;-77
2022/04/29 07:42:58;;;;;;;;;;;;;;;21.05;30.83;98422.94;5024037;28;1155;-77
2022/04/29 07:45:24;;;;;;;;;;;;;;;20.99;30.85;98427.50;5006736;28;1234;-77
2022/04/29 07:48:16;;;;;;;;;;;;;;;21.58;30.55;98435.31;5012837;28;1230;-77
2022/04/29 07:50:42;;;;;;;;;;;;;;;21.94;29.72;98434.59;5020848;28;1324;-77
2022/04/29 07:53:08;;;;;;;;;;;;;;;21.61;29.75;98434.47;5015797;28;1223;-77
2022/04/29 07:55:35;;;;;;;;;;;;;;;21.22;30.65;98430.28;5015612;28;1564;-77
2022/04/29 07:58:03;;;;;;;;;;;;;;;21.29;30.41;98441.47;5012379;28;1898;-77
2022/04/29 08:00:31;;;;;;;;;;;;;;;21.21;30.48;98428.69;4982105;28;1229;-76
2022/04/29 08:02:56;;;;;;;;;;;;;;;21.00;30.93;98431.91;4982346;28;1321;-77
2022/04/29 08:05:42;;;;;;;;;;;;;;;20.91;31.05;98431.66;4981759;28;1225;-77
2022/04/29 08:08:08;;;;;;;;;;;;;;;21.30;31.06;98431.81;4990468;28;1503;-77
2022/04/29 08:10:33;;;;;;;;;;;;;;;21.90;29.89;98426.16;4992695;28;1162;-77
2022/04/29 08:12:59;;;;;;;;;;;;;;;22.12;29.31;98423.69;5023135;28;1301;-77
2022/04/29 08:15:45;;;;;;;;;;;;;;;21.40;30.29;98437.69;5022840;28;1119;-77
2022/04/29 08:18:20;;;;;;;;;;;;;;;21.35;30.30;98439.00;4991598;28;1914;-77
2022/04/29 08:20:46;;;;;;;;;;;;;;;21.21;30.44;98428.69;4985910;28;1377;-77
2022/04/29 08:23:11;;;;;;;;;;;;;;;20.97;30.81;98430.72;4966897;28;1203;-77
2022/04/29 08:25:37;;;;;;;;;;;;;;;20.96;30.97;98423.47;4989995;28;1191;-77
2022/04/29 08:28:03;;;;;;;;;;;;;;;20.90;31.13;98425.22;4973333;28;1432;-77
2022/04/29 08:30:30;;;;;;;;;;;;;;;21.57;30.58;98428.06;4973550;28;1301;-76
2022/04/29 08:32:56;;;;;;;;;;;;;;;21.85;29.85;98421.81;4973166;28;1230;-77
2022/04/29 08:35:31;;;;;;;;;;;;;;;21.66;29.72;98414.13;4983677;28;1186;-77
2022/04/29 08:38:00;;;;;;;;;;;;;;;21.30;30.22;98434.63;4992804;28;1979;-77
2022/04/29 08:40:40;;;;;;;;;;;;;;;21.15;30.57;98424.78;4976909;28;1252;-76
2022/04/29 08:43:06;;;;;;;;;;;;;;;20.98;31.00;98425.88;4993007;28;1108;-77
2022/04/29 08:45:32;;;;;;;;;;;;;;;21.07;30.75;98424.09;4976892;28;1244;-77
2022/04/29 08:48:21;;;;;;;;;;;;;;;21.60;30.25;98432.84;4954179;29;1018;-76
2022/04/29 08:50:46;;;;;;;;;;;;;;;22.04;29.37;98410.91;4954058;29;978;-76
2022/04/29 08:53:11;;;;;;;;;;;;;;;21.64;29.91;98412.94;4938289;29;1332;-77
2022/04/29 09:01:05;;;;;;;;;;;;;;;21.08;30.77;98422.06;4940545;29;947;-76
2022/04/29 09:03:31;;;;;;;;;;;;;;;20.98;31.07;98417.38;4954419;29;999;-76
2022/04/29 09:05:56;;;;;;;;;;;;;;;21.67;30.17;98412.88;4938154;29;995;-76
2022/04/29 09:08:22;;;;;;;;;;;;;;;21.97;29.59;98417.53;4933256;29;1069;-76
2022/04/29 09:10:51;;;;;;;;;;;;;;;21.71;29.79;98410.78;4927490;28;2210;-76
2022/04/29 09:13:22;;;;;;;;;;;;;;;21.39;30.48;98410.59;4973588;28;1001;-77
2022/04/29 09:15:57;;;;;;;;;;;;;;;21.20;30.72;98403.69;4934825;29;1002;-76
2022/04/29 09:18:33;;;;;;;;;;;;;;;21.22;30.32;98402.00;4949942;28;1899;-76
2022/04/29 09:20:59;;;;;;;;;;;;;;;21.10;30.67;98410.31;4934827;29;1197;-77
2022/04/29 09:23:26;;;;;;;;;;;;;;;20.99;30.67;98399.19;4935076;29;1114;-77
2022/04/29 09:26:21;;;;;;;;;;;;;;;21.21;30.93;98411.72;4928076;29;1055;-76
2022/04/29 09:29:12;;;;;;;;;;;;;;;21.82;29.80;98411.34;4919280;29;955;-77
2022/04/29 09:31:59;;;;;;;;;;;;;;;21.89;29.42;98406.78;4935140;29;1206;-77
2022/04/29 09:34:51;;;;;;;;;;;;;;;21.37;30.17;98413.09;4919192;29;1008;-76
2022/04/29 09:37:18;;;;;;;;;;;;;;;21.17;30.49;98408.16;4934241;29;1911;-76
2022/04/29 09:39:52;;;;;;;;;;;;;;;21.17;30.48;98404.53;4919227;29;1043;-76
2022/04/29 09:42:18;;;;;;;;;;;;;;;21.16;30.44;98412.22;4932651;29;956;-77
2022/04/29 09:44:45;;;;;;;;;;;;;;;21.07;30.60;98409.16;4938462;29;986;-77
2022/04/29 09:47:14;;;;;;;;;;;;;;;21.02;30.76;98409.63;4938043;29;915;-76
2022/04/29 09:49:40;;;;;;;;;;;;;;;21.46;30.54;98399.16;4957493;29;956;-76
2022/04/29 09:52:06;;;;;;;;;;;;;;;21.99;29.18;98397.25;4956912;28;906;-77
2022/04/29 09:54:37;;;;;;;;;;;;;;;21.75;29.60;98402.19;4957043;29;930;-77
2022/04/29 09:57:02;;;;;;;;;;;;;;;21.42;30.24;98406.91;4957365;28;1922;-77
2022/04/29 09:59:34;;;;;;;;;;;;;;;21.29;30.15;98407.50;4957215;28;997;-77
2022/04/29 10:02:00;;;;;;;;;;;;;;;21.33;30.18;98401.81;4959105;28;1328;-77
2022/04/29 10:04:25;;;;;;;;;;;;;;;21.08;30.60;98405.06;5015176;28;892;-76
2022/04/29 10:06:51;;;;;;;;;;;;;;;21.26;31.00;98402.72;5032225;28;967;-77
2022/04/29 10:09:16;;;;;;;;;;;;;;;21.85;29.58;98393.47;5014903;28;1071;-77
2022/04/29 10:11:42;;;;;;;;;;;;;;;22.03;29.11;98393.09;5051106;28;1124;-77
2022/04/29 10:14:08;;;;;;;;;;;;;;;21.44;29.96;98391.09;5038311;28;1029;-77
2022/04/29 10:16:38;;;;;;;;;;;;;;;21.10;30.79;98399.81;5053774;28;1972;-76
2022/04/29 10:22:41;;;;;;;;;;;;;;;21.19;30.76;98397.22;5004859;28;1376;-77
2022/04/29 10:25:07;;;;;;;;;;;;;;;21.15;30.86;98396.47;5014310;28;980;-76
2022/04/29 10:27:33;;;;;;;;;;;;;;;21.14;30.76;98389.22;5014764;28;973;-77
2022/04/29 10:29:58;;;;;;;;;;;;;;;21.65;30.18;98384.19;5014635;28;1356;-78
2022/04/29 10:32:24;;;;;;;;;;;;;;;21.96;29.65;98375.44;5014441;28;874;-78
2022/04/29 10:34:54;;;;;;;;;;;;;;;21.67;30.08;98373.25;5014189;28;905;-78
2022/04/29 10:37:20;;;;;;;;;;;;;;;21.35;30.54;98376.72;4998024;28;1910;-77
2022/04/29 10:40:05;;;;;;;;;;;;;;;21.26;30.92;98370.81;5010839;28;945;-78
2022/04/29 10:42:31;;;;;;;;;;;;;;;20.87;31.50;98377.97;4955875;29;999;-77
2022/04/29 10:45:00;;;;;;;;;;;;;;;21.01;30.94;98379.75;4939911;29;976;-78
2022/04/29 10:47:31;;;;;;;;;;;;;;;21.55;30.66;98374.69;4921769;29;1001;-78
2022/04/29 10:50:30;;;;;;;;;;;;;;;22.07;29.69;98381.66;4917666;29;1046;-78
2022/04/29 10:53:36;;;;;;;;;;;;;;;21.35;30.97;98375.91;4936967;29;997;-77
2022/04/29 10:56:27;;;;;;;;;;;;;;;21.12;31.18;98385.22;4949561;28;1907;-78
2022/04/29 10:59:15;;;;;;;;;;;;;;;21.13;31.22;98375.50;4936863;29;968;-78
2022/04/29 11:01:41;;;;;;;;;;;;;;;21.05;31.50;98380.50;4936417;29;981;-77
2022/04/29 11:04:07;;;;;;;;;;;;;;;21.19;32.00;98374.56;4966754;28;945;-78
2022/04/29 11:06:36;;;;;;;;;;;;;;;21.85;30.24;98365.16;4974866;28;1068;-77
2022/04/29 11:09:01;;;;;;;;;;;;;;;21.97;29.85;98377.06;4958949;28;1097;-78
2022/04/29 11:11:42;;;;;;;;;;;;;;;21.49;30.66;98372.78;4936473;29;972;-77
2022/04/29 11:15:26;;;;;;;;;;;;;;;21.16;31.25;98378.25;4955593;29;987;-75
2022/04/29 11:18:12;;;;;;;;;;;;;;;21.14;30.89;98375.06;4898504;29;1973;-75
2022/04/29 11:20:37;;;;;;;;;;;;;;;21.08;31.37;98365.47;4898449;29;1083;-75
2022/04/29 11:25:48;;;;;;;;;;;;;;;21.25;31.32;98355.84;4897409;29;1567;-75
2022/04/29 11:28:25;;;;;;;;;;;;;;;21.77;30.62;98358.06;4906162;29;1901;-77
2022/04/29 11:31:35;;;;;;;;;;;;;;;21.62;30.23;98356.75;4897332;29;1917;-74
2022/04/29 11:34:09;;;;;;;;;;;;;;;21.23;30.98;98349.81;4916237;29;1664;-75
2022/04/29 11:36:35;;;;;;;;;;;;;;;21.14;31.37;98352.44;4924442;29;2045;-75
2022/04/29 11:39:03;;;;;;;;;;;;;;;21.09;31.10;98341.63;4919960;29;1961;-74
2022/04/29 11:41:29;;;;;;;;;;;;;;;21.00;31.29;98345.00;4871104;29;1653;-74
2022/04/29 11:43:54;;;;;;;;;;;;;;;21.16;31.39;98352.78;4875938;29;1696;-74
2022/04/29 11:46:21;;;;;;;;;;;;;;;21.78;30.58;98353.19;4892249;29;1865;-74
2022/04/29 11:48:51;;;;;;;;;;;;;;;22.09;29.81;98348.81;4925252;29;1261;-74
2022/04/29 11:51:16;;;;;;;;;;;;;;;22.16;29.73;98339.38;4916486;29;1019;-74
2022/04/29 11:53:54;;;;;;;;;;;;;;;21.68;30.18;98343.69;4916860;29;915;-74
2022/04/29 11:56:20;;;;;;;;;;;;;;;21.43;30.51;98349.06;4916497;29;1911;-74
2022/04/29 11:58:45;;;;;;;;;;;;;;;21.19;30.94;98339.78;4912586;29;951;-73
2022/04/29 12:01:12;;;;;;;;;;;;;;;21.11;31.24;98344.00;4899779;29;945;-74
2022/04/29 12:03:38;;;;;;;;;;;;;;;21.15;30.79;98331.41;4935924;29;1027;-74
2022/04/29 12:06:04;;;;;;;;;;;;;;;21.11;31.03;98333.50;4935276;29;955;-74
2022/04/29 12:08:39;;;;;;;;;;;;;;;21.14;30.79;98335.47;5002156;28;1246;-74
2022/04/29 12:11:27;;;;;;;;;;;;;;;21.14;30.64;98329.81;4993722;28;984;-74
2022/04/29 12:13:53;;;;;;;;;;;;;;;21.24;30.70;98339.28;5032507;28;1071;-74
2022/04/29 12:16:18;;;;;;;;;;;;;;;21.42;30.68;98324.81;5032754;28;1981;-74
2022/04/29 12:18:46;;;;;;;;;;;;;;;21.79;30.07;98327.25;5016014;28;1267;-74
2022/04/29 12:21:12;;;;;;;;;;;;;;;21.79;29.79;98327.25;5012553;28;922;-74
2022/04/29 12:23:41;;;;;;;;;;;;;;;21.43;30.26;98327.22;5012520;28;1063;-74
2022/04/29 12:26:07;;;;;;;;;;;;;;;21.23;30.78;98324.34;5012954;28;1005;-74
2022/04/29 12:28:35;;;;;;;;;;;;;;;21.05;30.75;98323.91;4980165;28;969;-74
2022/04/29 12:36:53;;;;;;;;;;;;;;;21.08;30.71;98328.69;5048611;28;1902;-74
2022/04/29 12:39:24;;;;;;;;;;;;;;;20.98;30.78;98324.81;5049166;28;1245;-74
2022/04/29 12:41:56;;;;;;;;;;;;;;;21.60;30.67;98322.41;5032202;28;1027;-75
2022/04/29 12:47:24;;;;;;;;;;;;;;;21.62;30.13;98322.78;5032554;28;926;-75
2022/04/29 12:49:50;;;;;;;;;;;;;;;21.27;30.28;98325.06;5032297;28;914;-75
2022/04/29 12:52:16;;;;;;;;;;;;;;;21.18;30.67;98318.41;5032372;28;1038;-75
2022/04/29 12:54:42;;;;;;;;;;;;;;;21.18;30.45;98322.03;5032601;28;923;-75
2022/04/29 12:57:08;;;;;;;;;;;;;;;21.04;30.79;98316.66;5032066;28;1977;-78
2022/04/29 12:59:34;;;;;;;;;;;;;;;21.07;30.53;98310.13;5051440;28;929;-75
2022/04/29 13:02:05;;;;;;;;;;;;;;;21.00;30.85;98315.94;5087450;28;1276;-75
2022/04/29 13:04:36;;;;;;;;;;;;;;;20.92;30.98;98308.78;5072008;28;1444;-75
2022/04/29 13:07:31;;;;;;;;;;;;;;;20.95;30.73;98302.28;5035467;28;1053;-75
2022/04/29 13:09:56;;;;;;;;;;;;;;;21.46;30.66;98302.91;5035623;28;945;-75
2022/04/29 13:12:22;;;;;;;;;;;;;;;21.88;29.59;98308.88;5035578;28;914;-75
2022/04/29 13:15:02;;;;;;;;;;;;;;;21.71;29.68;98308.84;5036118;28;1078;-75
2022/04/29 13:17:28;;;;;;;;;;;;;;;21.35;30.13;98319.28;5035415;28;1914;-75
2022/04/29 13:19:53;;;;;;;;;;;;;;;21.30;30.32;98307.28;5035367;28;971;-75
2022/04/29 13:22:19;;;;;;;;;;;;;;;21.13;30.62;98308.38;5049021;28;1227;-75
2022/04/29 13:24:46;;;;;;;;;;;;;;;21.03;30.55;98303.72;5038934;28;1240;-75
2022/04/29 13:27:11;;;;;;;;;;;;;;;21.02;30.54;98307.78;5022269;28;1157;-75
2022/04/29 13:29:38;;;;;;;;;;;;;;;20.98;30.42;98312.72;5055246;28;1026;-75
2022/04/29 13:32:03;;;;;;;;;;;;;;;21.43;30.60;98307.41;5055286;28;1014;-75
2022/04/29 13:34:29;;;;;;;;;;;;;;;21.89;29.31;98301.94;5054980;28;805;-75
2022/04/29 13:36:54;;;;;;;;;;;;;;;21.75;29.30;98309.53;5054738;28;1975;-75
2022/04/29 13:39:20;;;;;;;;;;;;;;;21.31;30.07;98308.06;5055114;28;941;-75
2022/04/29 13:42:04;;;;;;;;;;;;;;;21.08;30.64;98311.72;5038393;28;1230;-75
2022/04/29 13:44:30;;;;;;;;;;;;;;;20.99;30.37;98311.50;5071340;28;917;-75
2022/04/29 13:46:55;;;;;;;;;;;;;;;20.93;30.88;98310.38;5077758;28;972;-74
2022/04/29 13:49:21;;;;;;;;;;;;;;;20.89;30.65;98309.69;5077052;28;1031;-74
2022/04/29 13:51:46;;;;;;;;;;;;;;;20.99;30.73;98314.34;5077710;28;840;-75
2022/04/29 13:54:11;;;;;;;;;;;;;;;21.03;30.29;98315.03;5077683;28;891;-74